sensor_id;sensor_type;location;lat;lon;timestamp;temperature;humidity
21061;DHT22;10689;50.836;3.266;2022-07-06T00:00:35;15.20;99.90
21061;DHT22;10689;50.836;3.266;2022-07-06T00:03:00;15.20;99.90
21061;DHT22;10689;50.836;3.266;2022-07-06T00:05:26;15.10;99.90
21061;DHT22;10689;50.836;3.266;2022-07-06T00:07:52;15.00;99.90
21061;DHT22;10689;50.836;3.266;2022-07-06T00:10:18;15.00;99.90
21061;DHT22;10689;50.836;3.266;2022-07-06T00:12:44;15.00;99.90
21061;DHT22;10689;50.836;3.266;2022-07-06T00:15:09;15.00;99.90
21061;DHT22;10689;50.836;3.266;2022-07-06T00:17:35;15.00;99.90
21061;DHT22;10689;50.836;3.266;2022-07-06T00:20:01;15.00;99.90
21061;DHT22;10689;50.836;3.266;2022-07-06T00:22:27;15.00;99.90
21061;DHT22;10689;50.836;3.266;2022-07-06T00:24:53;14.90;99.90
21061;DHT22;10689;50.836;3.266;2022-07-06T00:27:18;14.80;99.90
21061;DHT22;10689;50.836;3.266;2022-07-06T00:29:44;14.80;99.90
21061;DHT22;10689;50.836;3.266;2022-07-06T00:32:10;14.70;99.90
21061;DHT22;10689;50.836;3.266;2022-07-06T00:34:37;14.80;99.90
21061;DHT22;10689;50.836;3.266;2022-07-06T00:37:05;14.70;99.90
21061;DHT22;10689;50.836;3.266;2022-07-06T00:39:31;14.70;99.90
21061;DHT22;10689;50.836;3.266;2022-07-06T00:41:57;14.60;99.90
21061;DHT22;10689;50.836;3.266;2022-07-06T00:44:23;14.60;99.90
21061;DHT22;10689;50.836;3.266;2022-07-06T00:46:48;14.60;99.90
21061;DHT22;10689;50.836;3.266;2022-07-06T00:49:15;14.60;99.90
21061;DHT22;10689;50.836;3.266;2022-07-06T00:51:59;14.60;99.90
21061;DHT22;10689;50.836;3.266;2022-07-06T00:54:30;14.50;99.90
21061;DHT22;10689;50.836;3.266;2022-07-06T00:56:56;14.50;99.90
21061;DHT22;10689;50.836;3.266;2022-07-06T00:59:23;14.50;99.90
21061;DHT22;10689;50.836;3.266;2022-07-06T01:01:50;14.50;99.90
21061;DHT22;10689;50.836;3.266;2022-07-06T01:04:16;14.40;99.90
21061;DHT22;10689;50.836;3.266;2022-07-06T01:06:44;14.40;99.90
21061;DHT22;10689;50.836;3.266;2022-07-06T01:09:10;14.40;99.90
21061;DHT22;10689;50.836;3.266;2022-07-06T01:11:36;14.40;99.90
21061;DHT22;10689;50.836;3.266;2022-07-06T01:14:02;14.40;99.90
21061;DHT22;10689;50.836;3.266;2022-07-06T01:16:28;14.40;99.90
21061;DHT22;10689;50.836;3.266;2022-07-06T01:18:54;14.40;99.90
21061;DHT22;10689;50.836;3.266;2022-07-06T01:21:19;14.60;99.90
21061;DHT22;10689;50.836;3.266;2022-07-06T01:23:46;14.60;99.90
21061;DHT22;10689;50.836;3.266;2022-07-06T01:26:18;14.70;99.90
21061;DHT22;10689;50.836;3.266;2022-07-06T01:28:46;14.80;99.90
21061;DHT22;10689;50.836;3.266;2022-07-06T01:31:16;14.80;99.90
21061;DHT22;10689;50.836;3.266;2022-07-06T01:33:43;14.80;99.90
21061;DHT22;10689;50.836;3.266;2022-07-06T01:36:09;14.90;99.90
21061;DHT22;10689;50.836;3.266;2022-07-06T01:38:51;15.00;99.90
21061;DHT22;10689;50.836;3.266;2022-07-06T01:41:18;15.00;99.90
21061;DHT22;10689;50.836;3.266;2022-07-06T01:43:45;15.10;99.90
21061;DHT22;10689;50.836;3.266;2022-07-06T01:46:11;15.10;99.90
21061;DHT22;10689;50.836;3.266;2022-07-06T01:48:37;15.20;99.90
21061;DHT22;10689;50.836;3.266;2022-07-06T01:51:03;15.20;99.90
21061;DHT22;10689;50.836;3.266;2022-07-06T01:53:29;15.20;99.90
21061;DHT22;10689;50.836;3.266;2022-07-06T01:55:55;15.30;99.90
21061;DHT22;10689;50.836;3.266;2022-07-06T01:58:21;15.30;99.90
21061;DHT22;10689;50.836;3.266;2022-07-06T02:00:47;15.30;99.90
21061;DHT22;10689;50.836;3.266;2022-07-06T02:03:13;15.40;99.90
21061;DHT22;10689;50.836;3.266;2022-07-06T02:05:39;15.50;99.90
21061;DHT22;10689;50.836;3.266;2022-07-06T02:08:04;15.50;99.90
21061;DHT22;10689;50.836;3.266;2022-07-06T02:10:31;15.50;99.90
21061;DHT22;10689;50.836;3.266;2022-07-06T02:12:56;15.60;99.90
21061;DHT22;10689;50.836;3.266;2022-07-06T02:15:22;15.60;99.90
21061;DHT22;10689;50.836;3.266;2022-07-06T02:17:48;15.60;99.90
21061;DHT22;10689;50.836;3.266;2022-07-06T02:20:13;15.60;99.90
21061;DHT22;10689;50.836;3.266;2022-07-06T02:22:40;15.60;99.90
21061;DHT22;10689;50.836;3.266;2022-07-06T02:25:05;15.70;99.90
21061;DHT22;10689;50.836;3.266;2022-07-06T02:27:31;15.70;99.90
21061;DHT22;10689;50.836;3.266;2022-07-06T02:29:57;15.70;99.90
21061;DHT22;10689;50.836;3.266;2022-07-06T02:32:23;15.80;99.90
21061;DHT22;10689;50.836;3.266;2022-07-06T02:34:48;15.90;99.90
21061;DHT22;10689;50.836;3.266;2022-07-06T02:37:14;15.90;99.90
21061;DHT22;10689;50.836;3.266;2022-07-06T02:39:40;15.80;99.90
21061;DHT22;10689;50.836;3.266;2022-07-06T02:42:06;15.90;99.90
21061;DHT22;10689;50.836;3.266;2022-07-06T02:44:31;15.80;99.90
21061;DHT22;10689;50.836;3.266;2022-07-06T02:46:57;15.80;99.90
21061;DHT22;10689;50.836;3.266;2022-07-06T02:49:23;15.80;99.90
21061;DHT22;10689;50.836;3.266;2022-07-06T02:51:49;15.80;99.90
21061;DHT22;10689;50.836;3.266;2022-07-06T02:54:14;15.80;99.90
21061;DHT22;10689;50.836;3.266;2022-07-06T02:56:41;15.80;99.90
21061;DHT22;10689;50.836;3.266;2022-07-06T02:59:07;15.70;99.90
21061;DHT22;10689;50.836;3.266;2022-07-06T03:01:33;15.60;99.90
21061;DHT22;10689;50.836;3.266;2022-07-06T03:03:59;15.50;99.90
21061;DHT22;10689;50.836;3.266;2022-07-06T03:06:24;15.40;99.90
21061;DHT22;10689;50.836;3.266;2022-07-06T03:08:50;15.50;99.90
21061;DHT22;10689;50.836;3.266;2022-07-06T03:11:15;15.50;99.90
21061;DHT22;10689;50.836;3.266;2022-07-06T03:13:41;15.40;99.90
21061;DHT22;10689;50.836;3.266;2022-07-06T03:16:07;15.30;99.90
21061;DHT22;10689;50.836;3.266;2022-07-06T03:18:32;15.30;99.90
21061;DHT22;10689;50.836;3.266;2022-07-06T03:20:58;15.20;99.90
21061;DHT22;10689;50.836;3.266;2022-07-06T03:23:24;15.10;99.90
21061;DHT22;10689;50.836;3.266;2022-07-06T03:25:49;15.10;99.90
21061;DHT22;10689;50.836;3.266;2022-07-06T03:28:15;15.10;99.90
21061;DHT22;10689;50.836;3.266;2022-07-06T03:30:41;15.00;99.90
21061;DHT22;10689;50.836;3.266;2022-07-06T03:33:07;15.00;99.90
21061;DHT22;10689;50.836;3.266;2022-07-06T03:35:32;15.00;99.90
21061;DHT22;10689;50.836;3.266;2022-07-06T03:37:58;14.90;99.90
21061;DHT22;10689;50.836;3.266;2022-07-06T03:40:24;14.80;99.90
21061;DHT22;10689;50.836;3.266;2022-07-06T03:42:50;14.80;99.90
21061;DHT22;10689;50.836;3.266;2022-07-06T03:45:16;14.70;99.90
21061;DHT22;10689;50.836;3.266;2022-07-06T03:47:41;14.70;99.90
21061;DHT22;10689;50.836;3.266;2022-07-06T03:50:07;14.60;99.90
21061;DHT22;10689;50.836;3.266;2022-07-06T03:52:34;14.50;99.90
21061;DHT22;10689;50.836;3.266;2022-07-06T03:55:00;14.50;99.90
21061;DHT22;10689;50.836;3.266;2022-07-06T03:57:26;14.40;99.90
21061;DHT22;10689;50.836;3.266;2022-07-06T03:59:52;14.40;99.90
21061;DHT22;10689;50.836;3.266;2022-07-06T04:02:17;14.40;99.90
21061;DHT22;10689;50.836;3.266;2022-07-06T04:04:43;14.50;99.90
21061;DHT22;10689;50.836;3.266;2022-07-06T04:07:09;14.50;99.90
21061;DHT22;10689;50.836;3.266;2022-07-06T04:09:35;14.60;99.90
21061;DHT22;10689;50.836;3.266;2022-07-06T04:12:01;14.60;99.90
21061;DHT22;10689;50.836;3.266;2022-07-06T04:14:26;14.80;99.90
21061;DHT22;10689;50.836;3.266;2022-07-06T04:16:52;14.90;99.90
21061;DHT22;10689;50.836;3.266;2022-07-06T04:19:18;14.90;99.90
21061;DHT22;10689;50.836;3.266;2022-07-06T04:21:44;15.10;99.90
21061;DHT22;10689;50.836;3.266;2022-07-06T04:24:10;15.30;99.90
21061;DHT22;10689;50.836;3.266;2022-07-06T04:26:36;15.30;99.90
21061;DHT22;10689;50.836;3.266;2022-07-06T04:29:01;15.40;99.90
21061;DHT22;10689;50.836;3.266;2022-07-06T04:31:27;15.40;99.90
21061;DHT22;10689;50.836;3.266;2022-07-06T04:33:53;15.50;99.90
21061;DHT22;10689;50.836;3.266;2022-07-06T04:36:18;15.50;99.90
21061;DHT22;10689;50.836;3.266;2022-07-06T04:38:44;15.60;99.90
21061;DHT22;10689;50.836;3.266;2022-07-06T04:41:13;15.70;99.90
21061;DHT22;10689;50.836;3.266;2022-07-06T04:43:38;15.80;99.90
21061;DHT22;10689;50.836;3.266;2022-07-06T04:46:04;15.90;99.90
21061;DHT22;10689;50.836;3.266;2022-07-06T04:48:31;15.90;99.90
21061;DHT22;10689;50.836;3.266;2022-07-06T04:51:01;16.10;99.90
21061;DHT22;10689;50.836;3.266;2022-07-06T04:53:27;16.10;99.90
21061;DHT22;10689;50.836;3.266;2022-07-06T04:55:52;16.10;99.90
21061;DHT22;10689;50.836;3.266;2022-07-06T04:58:18;16.20;99.90
21061;DHT22;10689;50.836;3.266;2022-07-06T05:00:44;16.30;99.90
21061;DHT22;10689;50.836;3.266;2022-07-06T05:03:10;16.50;99.90
21061;DHT22;10689;50.836;3.266;2022-07-06T05:05:36;16.60;99.90
21061;DHT22;10689;50.836;3.266;2022-07-06T05:08:02;16.70;99.90
21061;DHT22;10689;50.836;3.266;2022-07-06T05:10:27;16.70;99.90
21061;DHT22;10689;50.836;3.266;2022-07-06T05:12:54;16.80;99.90
21061;DHT22;10689;50.836;3.266;2022-07-06T05:15:20;16.90;99.90
21061;DHT22;10689;50.836;3.266;2022-07-06T05:17:46;16.90;99.90
21061;DHT22;10689;50.836;3.266;2022-07-06T05:20:12;16.90;99.90
21061;DHT22;10689;50.836;3.266;2022-07-06T05:22:37;17.00;99.90
21061;DHT22;10689;50.836;3.266;2022-07-06T05:25:03;17.00;99.90
21061;DHT22;10689;50.836;3.266;2022-07-06T05:27:29;17.00;99.90
21061;DHT22;10689;50.836;3.266;2022-07-06T05:29:54;17.10;99.90
21061;DHT22;10689;50.836;3.266;2022-07-06T05:32:20;17.20;99.90
21061;DHT22;10689;50.836;3.266;2022-07-06T05:34:46;17.50;99.90
21061;DHT22;10689;50.836;3.266;2022-07-06T05:37:11;17.60;99.90
21061;DHT22;10689;50.836;3.266;2022-07-06T05:39:37;17.80;99.90
21061;DHT22;10689;50.836;3.266;2022-07-06T05:42:04;18.00;99.90
21061;DHT22;10689;50.836;3.266;2022-07-06T05:44:31;18.10;99.90
21061;DHT22;10689;50.836;3.266;2022-07-06T05:46:56;18.30;99.90
21061;DHT22;10689;50.836;3.266;2022-07-06T05:49:42;18.70;99.90
21061;DHT22;10689;50.836;3.266;2022-07-06T05:52:26;18.80;99.90
21061;DHT22;10689;50.836;3.266;2022-07-06T05:54:52;19.00;99.90
21061;DHT22;10689;50.836;3.266;2022-07-06T05:57:17;19.00;99.90
21061;DHT22;10689;50.836;3.266;2022-07-06T05:59:43;19.10;99.90
21061;DHT22;10689;50.836;3.266;2022-07-06T06:02:09;19.20;99.90
21061;DHT22;10689;50.836;3.266;2022-07-06T06:04:34;19.20;99.90
21061;DHT22;10689;50.836;3.266;2022-07-06T06:07:00;19.30;99.90
21061;DHT22;10689;50.836;3.266;2022-07-06T06:09:26;19.20;99.90
21061;DHT22;10689;50.836;3.266;2022-07-06T06:11:52;19.30;99.90
21061;DHT22;10689;50.836;3.266;2022-07-06T06:14:17;19.20;99.90
21061;DHT22;10689;50.836;3.266;2022-07-06T06:16:43;19.20;99.90
21061;DHT22;10689;50.836;3.266;2022-07-06T06:19:09;19.20;99.90
21061;DHT22;10689;50.836;3.266;2022-07-06T06:21:35;19.10;99.90
21061;DHT22;10689;50.836;3.266;2022-07-06T06:24:01;19.30;99.90
21061;DHT22;10689;50.836;3.266;2022-07-06T06:26:26;19.40;99.90
21061;DHT22;10689;50.836;3.266;2022-07-06T06:28:52;19.40;99.90
21061;DHT22;10689;50.836;3.266;2022-07-06T06:31:17;19.50;99.90
21061;DHT22;10689;50.836;3.266;2022-07-06T06:33:43;19.50;99.90
21061;DHT22;10689;50.836;3.266;2022-07-06T06:36:09;19.60;99.90
21061;DHT22;10689;50.836;3.266;2022-07-06T06:38:34;19.60;99.90
21061;DHT22;10689;50.836;3.266;2022-07-06T06:41:02;19.60;99.90
21061;DHT22;10689;50.836;3.266;2022-07-06T06:43:28;19.60;99.90
21061;DHT22;10689;50.836;3.266;2022-07-06T06:45:53;19.50;99.90
21061;DHT22;10689;50.836;3.266;2022-07-06T06:48:19;19.60;99.90
21061;DHT22;10689;50.836;3.266;2022-07-06T06:50:46;19.60;99.90
21061;DHT22;10689;50.836;3.266;2022-07-06T06:53:12;19.70;99.90
21061;DHT22;10689;50.836;3.266;2022-07-06T06:55:37;19.80;99.90
21061;DHT22;10689;50.836;3.266;2022-07-06T06:58:03;19.90;99.90
21061;DHT22;10689;50.836;3.266;2022-07-06T07:00:29;20.10;99.90
21061;DHT22;10689;50.836;3.266;2022-07-06T07:02:55;20.10;99.90
21061;DHT22;10689;50.836;3.266;2022-07-06T07:05:21;20.20;99.90
21061;DHT22;10689;50.836;3.266;2022-07-06T07:07:47;20.20;99.90
21061;DHT22;10689;50.836;3.266;2022-07-06T07:10:12;20.30;99.90
21061;DHT22;10689;50.836;3.266;2022-07-06T07:12:45;20.20;99.90
21061;DHT22;10689;50.836;3.266;2022-07-06T07:15:12;20.30;99.90
21061;DHT22;10689;50.836;3.266;2022-07-06T07:17:38;20.20;99.90
21061;DHT22;10689;50.836;3.266;2022-07-06T07:20:04;20.20;99.90
21061;DHT22;10689;50.836;3.266;2022-07-06T07:22:30;20.20;99.90
21061;DHT22;10689;50.836;3.266;2022-07-06T07:24:55;20.40;99.90
21061;DHT22;10689;50.836;3.266;2022-07-06T07:27:21;20.50;99.90
21061;DHT22;10689;50.836;3.266;2022-07-06T07:29:47;20.60;99.90
21061;DHT22;10689;50.836;3.266;2022-07-06T07:32:13;20.80;99.90
21061;DHT22;10689;50.836;3.266;2022-07-06T07:34:39;21.00;99.90
21061;DHT22;10689;50.836;3.266;2022-07-06T07:37:04;21.10;99.90
21061;DHT22;10689;50.836;3.266;2022-07-06T07:39:30;21.10;99.90
21061;DHT22;10689;50.836;3.266;2022-07-06T07:41:56;21.10;99.90
21061;DHT22;10689;50.836;3.266;2022-07-06T07:44:22;21.10;99.90
21061;DHT22;10689;50.836;3.266;2022-07-06T07:46:47;21.20;99.90
21061;DHT22;10689;50.836;3.266;2022-07-06T07:49:13;21.30;99.90
21061;DHT22;10689;50.836;3.266;2022-07-06T07:51:39;21.40;99.90
21061;DHT22;10689;50.836;3.266;2022-07-06T07:54:06;21.40;99.90
21061;DHT22;10689;50.836;3.266;2022-07-06T07:56:32;21.40;99.90
21061;DHT22;10689;50.836;3.266;2022-07-06T07:58:58;21.60;99.90
21061;DHT22;10689;50.836;3.266;2022-07-06T08:01:23;21.90;99.90
21061;DHT22;10689;50.836;3.266;2022-07-06T08:03:49;21.80;99.90
21061;DHT22;10689;50.836;3.266;2022-07-06T08:06:15;22.10;99.90
21061;DHT22;10689;50.836;3.266;2022-07-06T08:08:41;22.60;99.90
21061;DHT22;10689;50.836;3.266;2022-07-06T08:11:07;22.60;99.90
21061;DHT22;10689;50.836;3.266;2022-07-06T08:13:33;22.80;99.90
21061;DHT22;10689;50.836;3.266;2022-07-06T08:15:59;22.80;99.90
21061;DHT22;10689;50.836;3.266;2022-07-06T08:18:25;23.10;99.90
21061;DHT22;10689;50.836;3.266;2022-07-06T08:20:51;23.20;99.90
21061;DHT22;10689;50.836;3.266;2022-07-06T08:23:18;23.40;99.90
21061;DHT22;10689;50.836;3.266;2022-07-06T08:25:44;23.60;99.90
21061;DHT22;10689;50.836;3.266;2022-07-06T08:28:09;23.80;99.90
21061;DHT22;10689;50.836;3.266;2022-07-06T08:30:35;24.10;99.90
21061;DHT22;10689;50.836;3.266;2022-07-06T08:33:01;24.30;99.90
21061;DHT22;10689;50.836;3.266;2022-07-06T08:35:27;24.30;99.90
21061;DHT22;10689;50.836;3.266;2022-07-06T08:37:53;24.40;99.90
21061;DHT22;10689;50.836;3.266;2022-07-06T08:40:18;24.50;99.90
21061;DHT22;10689;50.836;3.266;2022-07-06T08:42:45;24.70;99.90
21061;DHT22;10689;50.836;3.266;2022-07-06T08:45:14;24.80;99.90
21061;DHT22;10689;50.836;3.266;2022-07-06T08:47:41;25.00;99.90
21061;DHT22;10689;50.836;3.266;2022-07-06T08:50:08;25.10;99.90
21061;DHT22;10689;50.836;3.266;2022-07-06T08:52:35;25.10;99.90
21061;DHT22;10689;50.836;3.266;2022-07-06T08:55:03;24.70;99.90
21061;DHT22;10689;50.836;3.266;2022-07-06T08:57:29;24.80;99.90
21061;DHT22;10689;50.836;3.266;2022-07-06T08:59:55;24.70;99.90
21061;DHT22;10689;50.836;3.266;2022-07-06T09:02:24;24.60;99.90
21061;DHT22;10689;50.836;3.266;2022-07-06T09:04:54;24.80;99.90
21061;DHT22;10689;50.836;3.266;2022-07-06T09:07:21;24.90;99.90
21061;DHT22;10689;50.836;3.266;2022-07-06T09:09:47;25.00;99.90
21061;DHT22;10689;50.836;3.266;2022-07-06T09:12:14;25.30;99.90
21061;DHT22;10689;50.836;3.266;2022-07-06T09:14:40;25.40;99.90
21061;DHT22;10689;50.836;3.266;2022-07-06T09:17:06;25.70;99.90
21061;DHT22;10689;50.836;3.266;2022-07-06T09:19:33;25.90;99.90
21061;DHT22;10689;50.836;3.266;2022-07-06T09:22:00;26.00;99.90
21061;DHT22;10689;50.836;3.266;2022-07-06T09:24:26;26.00;99.90
21061;DHT22;10689;50.836;3.266;2022-07-06T09:26:56;25.80;99.90
21061;DHT22;10689;50.836;3.266;2022-07-06T09:29:31;25.70;99.90
21061;DHT22;10689;50.836;3.266;2022-07-06T09:31:58;25.70;99.90
21061;DHT22;10689;50.836;3.266;2022-07-06T09:34:24;25.70;99.90
21061;DHT22;10689;50.836;3.266;2022-07-06T09:36:50;25.60;99.90
21061;DHT22;10689;50.836;3.266;2022-07-06T09:41:53;25.70;99.90
21061;DHT22;10689;50.836;3.266;2022-07-06T09:44:39;25.40;99.90
21061;DHT22;10689;50.836;3.266;2022-07-06T09:47:06;25.30;99.90
21061;DHT22;10689;50.836;3.266;2022-07-06T09:49:33;25.20;99.90
21061;DHT22;10689;50.836;3.266;2022-07-06T09:52:01;25.00;99.90
21061;DHT22;10689;50.836;3.266;2022-07-06T09:54:27;25.00;99.90
21061;DHT22;10689;50.836;3.266;2022-07-06T09:56:54;25.30;99.90
21061;DHT22;10689;50.836;3.266;2022-07-06T09:59:23;25.60;99.90
21061;DHT22;10689;50.836;3.266;2022-07-06T10:01:56;25.60;99.90
21061;DHT22;10689;50.836;3.266;2022-07-06T10:04:24;25.70;99.90
21061;DHT22;10689;50.836;3.266;2022-07-06T10:06:50;25.40;99.90
21061;DHT22;10689;50.836;3.266;2022-07-06T10:09:18;25.50;99.90
21061;DHT22;10689;50.836;3.266;2022-07-06T10:11:49;25.80;99.90
21061;DHT22;10689;50.836;3.266;2022-07-06T10:14:17;25.90;99.90
21061;DHT22;10689;50.836;3.266;2022-07-06T10:16:45;25.40;99.90
21061;DHT22;10689;50.836;3.266;2022-07-06T10:19:11;25.40;99.90
21061;DHT22;10689;50.836;3.266;2022-07-06T10:21:40;25.20;99.90
21061;DHT22;10689;50.836;3.266;2022-07-06T10:24:07;25.40;99.90
21061;DHT22;10689;50.836;3.266;2022-07-06T10:26:34;25.40;99.90
21061;DHT22;10689;50.836;3.266;2022-07-06T10:29:05;25.50;99.90
21061;DHT22;10689;50.836;3.266;2022-07-06T10:31:32;25.30;99.90
21061;DHT22;10689;50.836;3.266;2022-07-06T10:34:00;25.20;99.90
21061;DHT22;10689;50.836;3.266;2022-07-06T10:36:29;24.80;99.90
21061;DHT22;10689;50.836;3.266;2022-07-06T10:38:55;24.80;99.90
21061;DHT22;10689;50.836;3.266;2022-07-06T10:41:32;24.50;99.90
21061;DHT22;10689;50.836;3.266;2022-07-06T10:43:58;24.30;99.90
21061;DHT22;10689;50.836;3.266;2022-07-06T10:46:39;24.30;99.90
21061;DHT22;10689;50.836;3.266;2022-07-06T10:49:15;24.70;99.90
21061;DHT22;10689;50.836;3.266;2022-07-06T10:51:41;25.00;99.90
21061;DHT22;10689;50.836;3.266;2022-07-06T10:54:09;25.30;99.90
21061;DHT22;10689;50.836;3.266;2022-07-06T10:56:47;25.60;99.90
21061;DHT22;10689;50.836;3.266;2022-07-06T10:59:16;25.20;99.90
21061;DHT22;10689;50.836;3.266;2022-07-06T11:02:14;25.50;99.90
21061;DHT22;10689;50.836;3.266;2022-07-06T11:04:44;25.40;99.90
21061;DHT22;10689;50.836;3.266;2022-07-06T11:07:15;25.50;99.90
21061;DHT22;10689;50.836;3.266;2022-07-06T11:09:41;25.90;99.90
21061;DHT22;10689;50.836;3.266;2022-07-06T11:12:17;26.20;99.90
21061;DHT22;10689;50.836;3.266;2022-07-06T11:14:50;26.50;99.90
21061;DHT22;10689;50.836;3.266;2022-07-06T11:17:17;26.10;99.90
21061;DHT22;10689;50.836;3.266;2022-07-06T11:19:57;26.40;99.90
21061;DHT22;10689;50.836;3.266;2022-07-06T11:22:23;26.60;99.90
21061;DHT22;10689;50.836;3.266;2022-07-06T11:24:52;26.50;99.90
21061;DHT22;10689;50.836;3.266;2022-07-06T11:27:18;26.10;99.90
21061;DHT22;10689;50.836;3.266;2022-07-06T11:29:44;26.00;99.90
21061;DHT22;10689;50.836;3.266;2022-07-06T11:32:11;25.60;99.90
21061;DHT22;10689;50.836;3.266;2022-07-06T11:34:40;26.10;99.90
21061;DHT22;10689;50.836;3.266;2022-07-06T11:37:09;26.60;99.90
21061;DHT22;10689;50.836;3.266;2022-07-06T11:39:37;26.30;99.90
21061;DHT22;10689;50.836;3.266;2022-07-06T11:42:05;26.20;99.90
21061;DHT22;10689;50.836;3.266;2022-07-06T11:44:31;26.20;99.90
21061;DHT22;10689;50.836;3.266;2022-07-06T11:46:58;25.70;99.90
21061;DHT22;10689;50.836;3.266;2022-07-06T11:49:25;25.50;99.90
21061;DHT22;10689;50.836;3.266;2022-07-06T11:51:51;25.60;99.90
21061;DHT22;10689;50.836;3.266;2022-07-06T11:54:19;25.80;99.90
21061;DHT22;10689;50.836;3.266;2022-07-06T11:56:54;25.80;99.90
21061;DHT22;10689;50.836;3.266;2022-07-06T11:59:25;26.00;99.90
21061;DHT22;10689;50.836;3.266;2022-07-06T12:02:06;25.70;99.90
21061;DHT22;10689;50.836;3.266;2022-07-06T12:04:36;25.60;99.90
21061;DHT22;10689;50.836;3.266;2022-07-06T12:07:06;26.00;99.90
21061;DHT22;10689;50.836;3.266;2022-07-06T12:09:34;26.30;99.90
21061;DHT22;10689;50.836;3.266;2022-07-06T12:12:00;26.60;99.90
21061;DHT22;10689;50.836;3.266;2022-07-06T12:14:31;26.60;99.90
21061;DHT22;10689;50.836;3.266;2022-07-06T12:17:03;26.80;99.90
21061;DHT22;10689;50.836;3.266;2022-07-06T12:19:29;27.00;99.90
21061;DHT22;10689;50.836;3.266;2022-07-06T12:21:54;26.80;99.90
21061;DHT22;10689;50.836;3.266;2022-07-06T12:24:27;26.70;99.90
21061;DHT22;10689;50.836;3.266;2022-07-06T12:26:54;26.20;99.90
21061;DHT22;10689;50.836;3.266;2022-07-06T12:29:20;26.00;99.90
21061;DHT22;10689;50.836;3.266;2022-07-06T12:31:55;26.00;99.90
21061;DHT22;10689;50.836;3.266;2022-07-06T12:34:23;26.30;99.90
21061;DHT22;10689;50.836;3.266;2022-07-06T12:36:53;26.70;99.90
21061;DHT22;10689;50.836;3.266;2022-07-06T12:39:23;26.80;99.90
21061;DHT22;10689;50.836;3.266;2022-07-06T12:41:54;26.80;99.90
21061;DHT22;10689;50.836;3.266;2022-07-06T12:44:23;27.00;99.90
21061;DHT22;10689;50.836;3.266;2022-07-06T12:46:50;27.20;99.90
21061;DHT22;10689;50.836;3.266;2022-07-06T12:49:21;27.20;99.90
21061;DHT22;10689;50.836;3.266;2022-07-06T12:52:03;27.40;99.90
21061;DHT22;10689;50.836;3.266;2022-07-06T12:54:41;27.20;99.90
21061;DHT22;10689;50.836;3.266;2022-07-06T12:59:46;27.70;99.90
21061;DHT22;10689;50.836;3.266;2022-07-06T13:02:25;27.50;99.90
21061;DHT22;10689;50.836;3.266;2022-07-06T13:04:59;27.70;99.90
21061;DHT22;10689;50.836;3.266;2022-07-06T13:07:26;27.90;99.90
21061;DHT22;10689;50.836;3.266;2022-07-06T13:09:52;28.20;99.90
21061;DHT22;10689;50.836;3.266;2022-07-06T13:12:18;27.60;99.90
21061;DHT22;10689;50.836;3.266;2022-07-06T13:14:44;27.60;99.90
21061;DHT22;10689;50.836;3.266;2022-07-06T13:17:10;27.70;99.90
21061;DHT22;10689;50.836;3.266;2022-07-06T13:19:35;27.70;99.90
21061;DHT22;10689;50.836;3.266;2022-07-06T13:22:01;27.60;99.90
21061;DHT22;10689;50.836;3.266;2022-07-06T13:24:27;27.50;99.90
21061;DHT22;10689;50.836;3.266;2022-07-06T13:26:54;27.30;99.90
21061;DHT22;10689;50.836;3.266;2022-07-06T13:29:21;27.70;99.90
21061;DHT22;10689;50.836;3.266;2022-07-06T13:31:46;28.10;99.90
21061;DHT22;10689;50.836;3.266;2022-07-06T13:34:12;27.50;99.90
21061;DHT22;10689;50.836;3.266;2022-07-06T13:36:39;27.20;99.90
21061;DHT22;10689;50.836;3.266;2022-07-06T13:39:05;27.00;99.90
21061;DHT22;10689;50.836;3.266;2022-07-06T13:41:32;27.40;99.90
21061;DHT22;10689;50.836;3.266;2022-07-06T13:43:59;27.90;99.90
21061;DHT22;10689;50.836;3.266;2022-07-06T13:46:30;27.70;99.90
21061;DHT22;10689;50.836;3.266;2022-07-06T13:48:56;27.70;99.90
21061;DHT22;10689;50.836;3.266;2022-07-06T13:51:23;28.50;99.90
21061;DHT22;10689;50.836;3.266;2022-07-06T13:53:49;29.10;99.90
21061;DHT22;10689;50.836;3.266;2022-07-06T13:56:16;29.80;99.90
21061;DHT22;10689;50.836;3.266;2022-07-06T13:58:41;30.10;99.90
21061;DHT22;10689;50.836;3.266;2022-07-06T14:01:07;30.00;99.90
21061;DHT22;10689;50.836;3.266;2022-07-06T14:03:33;29.70;99.90
21061;DHT22;10689;50.836;3.266;2022-07-06T14:06:00;29.00;99.90
21061;DHT22;10689;50.836;3.266;2022-07-06T14:08:28;28.80;99.90
21061;DHT22;10689;50.836;3.266;2022-07-06T14:10:54;28.90;99.90
21061;DHT22;10689;50.836;3.266;2022-07-06T14:13:20;28.60;99.90
21061;DHT22;10689;50.836;3.266;2022-07-06T14:15:47;28.30;99.90
21061;DHT22;10689;50.836;3.266;2022-07-06T14:18:13;28.50;99.90
21061;DHT22;10689;50.836;3.266;2022-07-06T14:20:40;28.00;99.90
21061;DHT22;10689;50.836;3.266;2022-07-06T14:23:06;28.40;99.90
21061;DHT22;10689;50.836;3.266;2022-07-06T14:25:32;28.60;99.90
21061;DHT22;10689;50.836;3.266;2022-07-06T14:27:58;27.90;99.90
21061;DHT22;10689;50.836;3.266;2022-07-06T14:30:25;27.90;99.90
21061;DHT22;10689;50.836;3.266;2022-07-06T14:32:50;28.50;99.90
21061;DHT22;10689;50.836;3.266;2022-07-06T14:35:16;28.70;99.90
21061;DHT22;10689;50.836;3.266;2022-07-06T14:37:42;28.30;99.90
21061;DHT22;10689;50.836;3.266;2022-07-06T14:40:08;28.20;99.90
21061;DHT22;10689;50.836;3.266;2022-07-06T14:42:34;28.60;99.90
21061;DHT22;10689;50.836;3.266;2022-07-06T14:45:00;28.80;99.90
21061;DHT22;10689;50.836;3.266;2022-07-06T14:47:26;29.20;99.90
21061;DHT22;10689;50.836;3.266;2022-07-06T14:49:52;28.90;99.90
21061;DHT22;10689;50.836;3.266;2022-07-06T14:52:18;28.60;99.90
21061;DHT22;10689;50.836;3.266;2022-07-06T14:54:44;28.50;99.90
21061;DHT22;10689;50.836;3.266;2022-07-06T14:57:10;28.60;99.90
21061;DHT22;10689;50.836;3.266;2022-07-06T14:59:36;28.70;99.90
21061;DHT22;10689;50.836;3.266;2022-07-06T15:02:02;28.80;99.90
21061;DHT22;10689;50.836;3.266;2022-07-06T15:04:28;29.20;99.90
21061;DHT22;10689;50.836;3.266;2022-07-06T15:06:54;29.10;99.90
21061;DHT22;10689;50.836;3.266;2022-07-06T15:09:20;28.90;99.90
21061;DHT22;10689;50.836;3.266;2022-07-06T15:11:46;28.90;99.90
21061;DHT22;10689;50.836;3.266;2022-07-06T15:14:12;29.10;99.90
21061;DHT22;10689;50.836;3.266;2022-07-06T15:16:38;29.50;99.90
21061;DHT22;10689;50.836;3.266;2022-07-06T15:19:04;29.80;99.90
21061;DHT22;10689;50.836;3.266;2022-07-06T15:21:30;30.10;99.90
21061;DHT22;10689;50.836;3.266;2022-07-06T15:23:56;30.70;99.90
21061;DHT22;10689;50.836;3.266;2022-07-06T15:26:22;30.00;99.90
21061;DHT22;10689;50.836;3.266;2022-07-06T15:28:50;30.00;99.90
21061;DHT22;10689;50.836;3.266;2022-07-06T15:31:16;30.80;99.90
21061;DHT22;10689;50.836;3.266;2022-07-06T15:33:42;31.10;99.90